PWSweather.com
Personal Weather Stations
Station Observations
MENWDWX1
Menstrie, ScotlandGB

MenstrieScotlandGB

Lat: 56.148322, Lon: -3.85483

Elevation: 62

Station Type: Davis Vantage Pro 2

High Low Average
Temperature 37.3°F2.9°C 33.5°F0.8°C 35.7°F2.1°C
Dew Point 30.5°F-0.8°C 26.3°F-3.2°C 28.1°F-2.2°C
Winds 20.7 mph 33.3 kmh 5.8 mph 9.3 kmh 12.0 mph E19.3 kmh E
Wind Gusts 31.1 mph50.1 kmh 8.1 mph13.0 kmh 17.0 mph27.4 kmh
Humidity 85% 65% 74%
Pressure 29.99 in1015.6 mb 29.14 in986.8 mb -
Precipitation 0.99 in25.1 mm - -
Hour Temp Dew Point Humidity Winds Wind Gusts Pressure Precip Precip Rate Daily Precip Total
12:00 AM 35.7°F2.1°C 27.2°F-2.7°C 71% 9.2 mph E14.8 kmh E 11.5 mph18.5 kmh 29.98 in1015.2 mb - 0.00 in0.0 mm 0.00 in0.0 mm
12:05 AM 36.0°F2.2°C 27.2°F-2.7°C 70% 9.2 mph ESE14.8 kmh ESE 11.5 mph18.5 kmh 29.98 in1015.2 mb - 0.00 in0.0 mm 0.00 in0.0 mm
12:10 AM 35.8°F2.1°C 27.0°F-2.8°C 70% 6.9 mph ESE11.1 kmh ESE 11.5 mph18.5 kmh 29.98 in1015.2 mb - 0.00 in0.0 mm 0.00 in0.0 mm
12:15 AM 35.5°F1.9°C 27.0°F-2.8°C 71% 8.1 mph SE13.0 kmh SE 11.5 mph18.5 kmh 29.99 in1015.6 mb - 0.00 in0.0 mm 0.00 in0.0 mm
12:20 AM 35.3°F1.8°C 27.2°F-2.7°C 72% 9.2 mph ESE14.8 kmh ESE 11.5 mph18.5 kmh 29.99 in1015.6 mb - 0.00 in0.0 mm 0.00 in0.0 mm
12:25 AM 35.3°F1.8°C 26.8°F-2.9°C 71% 8.1 mph ESE13.0 kmh ESE 9.2 mph14.8 kmh 29.98 in1015.2 mb - 0.00 in0.0 mm 0.00 in0.0 mm
12:30 AM 35.3°F1.8°C 27.2°F-2.7°C 72% 8.1 mph E13.0 kmh E 10.4 mph16.7 kmh 29.98 in1015.2 mb - 0.00 in0.0 mm 0.00 in0.0 mm
12:35 AM 35.4°F1.9°C 27.3°F-2.6°C 72% 5.8 mph ESE9.3 kmh ESE 11.5 mph18.5 kmh 29.98 in1015.2 mb - 0.00 in0.0 mm 0.00 in0.0 mm
12:40 AM 35.4°F1.9°C 27.2°F-2.7°C 72% 6.9 mph ESE11.1 kmh ESE 10.4 mph16.7 kmh 29.98 in1015.2 mb - 0.00 in0.0 mm 0.00 in0.0 mm
12:45 AM 35.5°F1.9°C 27.4°F-2.6°C 72% 9.2 mph ESE14.8 kmh ESE 11.5 mph18.5 kmh 29.97 in1014.9 mb - 0.00 in0.0 mm 0.00 in0.0 mm
12:50 AM 35.5°F1.9°C 27.1°F-2.7°C 71% 8.1 mph ESE13.0 kmh ESE 10.4 mph16.7 kmh 29.98 in1015.2 mb - 0.00 in0.0 mm 0.00 in0.0 mm
12:55 AM 35.5°F1.9°C 27.4°F-2.6°C 72% 8.1 mph E13.0 kmh E 10.4 mph16.7 kmh 29.97 in1014.9 mb - 0.00 in0.0 mm 0.00 in0.0 mm
01:00 AM 35.6°F2.0°C 27.1°F-2.7°C 71% 6.9 mph ESE11.1 kmh ESE 8.1 mph13.0 kmh 29.98 in1015.2 mb - 0.00 in0.0 mm 0.00 in0.0 mm
01:05 AM 35.5°F1.9°C 27.4°F-2.6°C 72% 6.9 mph ESE11.1 kmh ESE 9.2 mph14.8 kmh 29.98 in1015.2 mb - 0.00 in0.0 mm 0.00 in0.0 mm
01:10 AM 35.5°F1.9°C 27.4°F-2.6°C 72% 8.1 mph ESE13.0 kmh ESE 11.5 mph18.5 kmh 29.98 in1015.2 mb - 0.00 in0.0 mm 0.00 in0.0 mm
01:15 AM 35.4°F1.9°C 27.2°F-2.7°C 72% 8.1 mph ESE13.0 kmh ESE 11.5 mph18.5 kmh 29.98 in1015.2 mb - 0.00 in0.0 mm 0.00 in0.0 mm
01:20 AM 35.4°F1.9°C 27.3°F-2.6°C 72% 10.4 mph E16.7 kmh E 13.8 mph22.2 kmh 29.98 in1015.2 mb - 0.00 in0.0 mm 0.00 in0.0 mm
01:25 AM 35.7°F2.1°C 27.2°F-2.7°C 71% 11.5 mph ESE18.5 kmh ESE 13.8 mph22.2 kmh 29.98 in1015.2 mb - 0.00 in0.0 mm 0.00 in0.0 mm
01:30 AM 35.9°F2.2°C 27.4°F-2.6°C 71% 8.1 mph E13.0 kmh E 11.5 mph18.5 kmh 29.98 in1015.2 mb - 0.00 in0.0 mm 0.00 in0.0 mm
01:35 AM 36.0°F2.2°C 27.6°F-2.4°C 71% 9.2 mph SE14.8 kmh SE 11.5 mph18.5 kmh 29.98 in1015.2 mb - 0.00 in0.0 mm 0.00 in0.0 mm
01:40 AM 36.1°F2.3°C 27.3°F-2.6°C 70% 8.1 mph ESE13.0 kmh ESE 11.5 mph18.5 kmh 29.98 in1015.2 mb - 0.00 in0.0 mm 0.00 in0.0 mm
01:45 AM 36.3°F2.4°C 27.4°F-2.6°C 70% 11.5 mph E18.5 kmh E 11.5 mph18.5 kmh 29.98 in1015.2 mb - 0.00 in0.0 mm 0.00 in0.0 mm
01:50 AM 36.4°F2.4°C 27.2°F-2.7°C 69% 9.2 mph ESE14.8 kmh ESE 11.5 mph18.5 kmh 29.98 in1015.2 mb - 0.00 in0.0 mm 0.00 in0.0 mm
01:55 AM 36.5°F2.5°C 27.3°F-2.6°C 69% 6.9 mph ESE11.1 kmh ESE 11.5 mph18.5 kmh 29.97 in1014.9 mb - 0.00 in0.0 mm 0.00 in0.0 mm
02:00 AM 36.6°F2.6°C 27.4°F-2.6°C 69% 11.5 mph E18.5 kmh E 16.1 mph25.9 kmh 29.97 in1014.9 mb - 0.00 in0.0 mm 0.00 in0.0 mm
02:05 AM 36.9°F2.7°C 27.0°F-2.8°C 67% 8.1 mph ESE13.0 kmh ESE 11.5 mph18.5 kmh 29.97 in1014.9 mb - 0.00 in0.0 mm 0.00 in0.0 mm
02:10 AM 37.0°F2.8°C 27.1°F-2.7°C 67% 9.2 mph ESE14.8 kmh ESE 11.5 mph18.5 kmh 29.97 in1014.9 mb - 0.00 in0.0 mm 0.00 in0.0 mm
02:15 AM 37.0°F2.8°C 27.0°F-2.8°C 67% 11.5 mph E18.5 kmh E 15.0 mph24.1 kmh 29.96 in1014.6 mb - 0.00 in0.0 mm 0.00 in0.0 mm
02:20 AM 37.2°F2.9°C 26.9°F-2.8°C 66% 9.2 mph E14.8 kmh E 12.7 mph20.4 kmh 29.96 in1014.6 mb - 0.00 in0.0 mm 0.00 in0.0 mm
02:25 AM 37.3°F2.9°C 27.0°F-2.8°C 66% 8.1 mph E13.0 kmh E 11.5 mph18.5 kmh 29.96 in1014.6 mb - 0.00 in0.0 mm 0.00 in0.0 mm
02:30 AM 37.2°F2.9°C 26.9°F-2.8°C 66% 10.4 mph E16.7 kmh E 16.1 mph25.9 kmh 29.95 in1014.2 mb - 0.00 in0.0 mm 0.00 in0.0 mm
02:35 AM 37.1°F2.8°C 26.8°F-2.9°C 66% 9.2 mph E14.8 kmh E 11.5 mph18.5 kmh 29.95 in1014.2 mb - 0.00 in0.0 mm 0.00 in0.0 mm
02:40 AM 37.1°F2.8°C 26.5°F-3.1°C 65% 8.1 mph ESE13.0 kmh ESE 11.5 mph18.5 kmh 29.95 in1014.2 mb - 0.00 in0.0 mm 0.00 in0.0 mm
02:45 AM 37.1°F2.8°C 26.4°F-3.1°C 65% 9.2 mph E14.8 kmh E 13.8 mph22.2 kmh 29.95 in1014.2 mb - 0.00 in0.0 mm 0.00 in0.0 mm
02:50 AM 37.1°F2.8°C 26.4°F-3.1°C 65% 6.9 mph ESE11.1 kmh ESE 11.5 mph18.5 kmh 29.95 in1014.2 mb - 0.00 in0.0 mm 0.00 in0.0 mm
02:55 AM 37.0°F2.8°C 26.7°F-2.9°C 66% 6.9 mph E11.1 kmh E 12.7 mph20.4 kmh 29.96 in1014.6 mb - 0.00 in0.0 mm 0.00 in0.0 mm
03:00 AM 37.0°F2.8°C 26.3°F-3.2°C 65% 9.2 mph E14.8 kmh E 11.5 mph18.5 kmh 29.95 in1014.2 mb - 0.00 in0.0 mm 0.00 in0.0 mm
03:05 AM 37.1°F2.8°C 26.4°F-3.1°C 65% 10.4 mph E16.7 kmh E 11.5 mph18.5 kmh 29.95 in1014.2 mb - 0.00 in0.0 mm 0.00 in0.0 mm
03:10 AM 36.9°F2.7°C 27.0°F-2.8°C 67% 9.2 mph E14.8 kmh E 12.7 mph20.4 kmh 29.95 in1014.2 mb - 0.00 in0.0 mm 0.00 in0.0 mm
03:15 AM 36.8°F2.7°C 26.5°F-3.1°C 66% 10.4 mph E16.7 kmh E 15.0 mph24.1 kmh 29.94 in1013.9 mb - 0.00 in0.0 mm 0.00 in0.0 mm
03:20 AM 36.9°F2.7°C 26.6°F-3.0°C 66% 9.2 mph E14.8 kmh E 11.5 mph18.5 kmh 29.94 in1013.9 mb - 0.00 in0.0 mm 0.00 in0.0 mm
03:25 AM 37.0°F2.8°C 26.7°F-2.9°C 66% 9.2 mph ESE14.8 kmh ESE 12.7 mph20.4 kmh 29.94 in1013.9 mb - 0.00 in0.0 mm 0.00 in0.0 mm
03:30 AM 37.0°F2.8°C 26.7°F-2.9°C 66% 8.1 mph E13.0 kmh E 11.5 mph18.5 kmh 29.94 in1013.9 mb - 0.00 in0.0 mm 0.00 in0.0 mm
03:35 AM 37.0°F2.8°C 26.4°F-3.1°C 65% 12.7 mph E20.4 kmh E 17.3 mph27.8 kmh 29.93 in1013.5 mb - 0.00 in0.0 mm 0.00 in0.0 mm
03:40 AM 37.1°F2.8°C 26.4°F-3.1°C 65% 10.4 mph ESE16.7 kmh ESE 13.8 mph22.2 kmh 29.93 in1013.5 mb - 0.00 in0.0 mm 0.00 in0.0 mm
03:45 AM 37.1°F2.8°C 26.4°F-3.1°C 65% 9.2 mph ESE14.8 kmh ESE 13.8 mph22.2 kmh 29.93 in1013.5 mb - 0.00 in0.0 mm 0.00 in0.0 mm
03:50 AM 37.0°F2.8°C 26.3°F-3.2°C 65% 10.4 mph ESE16.7 kmh ESE 16.1 mph25.9 kmh 29.92 in1013.2 mb - 0.00 in0.0 mm 0.00 in0.0 mm
03:55 AM 36.8°F2.7°C 26.5°F-3.1°C 66% 9.2 mph ESE14.8 kmh ESE 13.8 mph22.2 kmh 29.91 in1012.9 mb - 0.00 in0.0 mm 0.00 in0.0 mm
04:00 AM 36.6°F2.6°C 26.7°F-2.9°C 67% 9.2 mph E14.8 kmh E 11.5 mph18.5 kmh 29.90 in1012.5 mb - 0.00 in0.0 mm 0.00 in0.0 mm
04:05 AM 36.7°F2.6°C 26.4°F-3.1°C 66% 10.4 mph ESE16.7 kmh ESE 15.0 mph24.1 kmh 29.90 in1012.5 mb - 0.00 in0.0 mm 0.00 in0.0 mm
04:10 AM 36.8°F2.7°C 26.5°F-3.1°C 66% 9.2 mph E14.8 kmh E 15.0 mph24.1 kmh 29.91 in1012.9 mb - 0.00 in0.0 mm 0.00 in0.0 mm
04:15 AM 36.8°F2.7°C 26.5°F-3.1°C 66% 13.8 mph E22.2 kmh E 19.6 mph31.5 kmh 29.91 in1012.9 mb - 0.00 in0.0 mm 0.00 in0.0 mm
04:20 AM 36.8°F2.7°C 26.5°F-3.1°C 66% 11.5 mph E18.5 kmh E 16.1 mph25.9 kmh 29.90 in1012.5 mb - 0.00 in0.0 mm 0.00 in0.0 mm
04:25 AM 36.8°F2.7°C 26.8°F-2.9°C 67% 12.7 mph E20.4 kmh E 15.0 mph24.1 kmh 29.89 in1012.2 mb - 0.00 in0.0 mm 0.00 in0.0 mm
04:30 AM 36.7°F2.6°C 26.8°F-2.9°C 67% 11.5 mph E18.5 kmh E 12.7 mph20.4 kmh 29.88 in1011.9 mb - 0.00 in0.0 mm 0.00 in0.0 mm
04:35 AM 36.6°F2.6°C 26.7°F-2.9°C 67% 11.5 mph E18.5 kmh E 15.0 mph24.1 kmh 29.89 in1012.2 mb - 0.00 in0.0 mm 0.00 in0.0 mm
04:40 AM 36.6°F2.6°C 26.7°F-2.9°C 67% 10.4 mph E16.7 kmh E 12.7 mph20.4 kmh 29.89 in1012.2 mb - 0.00 in0.0 mm 0.00 in0.0 mm
04:45 AM 36.6°F2.6°C 27.0°F-2.8°C 68% 8.1 mph E13.0 kmh E 13.8 mph22.2 kmh 29.89 in1012.2 mb - 0.00 in0.0 mm 0.00 in0.0 mm
04:50 AM 36.6°F2.6°C 26.7°F-2.9°C 67% 9.2 mph E14.8 kmh E 11.5 mph18.5 kmh 29.90 in1012.5 mb - 0.00 in0.0 mm 0.00 in0.0 mm
04:55 AM 36.6°F2.6°C 27.0°F-2.8°C 68% 9.2 mph E14.8 kmh E 12.7 mph20.4 kmh 29.90 in1012.5 mb - 0.00 in0.0 mm 0.00 in0.0 mm
05:00 AM 36.6°F2.6°C 27.0°F-2.8°C 68% 8.1 mph E13.0 kmh E 12.7 mph20.4 kmh 29.91 in1012.9 mb - 0.00 in0.0 mm 0.00 in0.0 mm
05:05 AM 36.7°F2.6°C 27.1°F-2.7°C 68% 9.2 mph E14.8 kmh E 12.7 mph20.4 kmh 29.90 in1012.5 mb - 0.00 in0.0 mm 0.00 in0.0 mm
05:10 AM 36.7°F2.6°C 27.1°F-2.7°C 68% 8.1 mph E13.0 kmh E 11.5 mph18.5 kmh 29.90 in1012.5 mb - 0.00 in0.0 mm 0.00 in0.0 mm
05:15 AM 36.8°F2.7°C 26.8°F-2.9°C 67% 10.4 mph E16.7 kmh E 11.5 mph18.5 kmh 29.90 in1012.5 mb - 0.00 in0.0 mm 0.00 in0.0 mm
05:20 AM 36.8°F2.7°C 26.9°F-2.8°C 67% 8.1 mph E13.0 kmh E 12.7 mph20.4 kmh 29.89 in1012.2 mb - 0.00 in0.0 mm 0.00 in0.0 mm
05:25 AM 36.8°F2.7°C 26.9°F-2.8°C 67% 9.2 mph E14.8 kmh E 12.7 mph20.4 kmh 29.89 in1012.2 mb - 0.00 in0.0 mm 0.00 in0.0 mm
05:30 AM 36.8°F2.7°C 26.9°F-2.8°C 67% 11.5 mph E18.5 kmh E 15.0 mph24.1 kmh 29.89 in1012.2 mb - 0.00 in0.0 mm 0.00 in0.0 mm
05:35 AM 36.8°F2.7°C 26.9°F-2.8°C 67% 10.4 mph E16.7 kmh E 16.1 mph25.9 kmh 29.88 in1011.9 mb - 0.00 in0.0 mm 0.00 in0.0 mm
05:40 AM 36.8°F2.7°C 26.9°F-2.8°C 67% 11.5 mph E18.5 kmh E 13.8 mph22.2 kmh 29.87 in1011.5 mb - 0.00 in0.0 mm 0.00 in0.0 mm
05:45 AM 36.8°F2.7°C 26.9°F-2.8°C 67% 8.1 mph ESE13.0 kmh ESE 11.5 mph18.5 kmh 29.87 in1011.5 mb - 0.00 in0.0 mm 0.00 in0.0 mm
05:50 AM 36.8°F2.7°C 27.2°F-2.7°C 68% 9.2 mph E14.8 kmh E 10.4 mph16.7 kmh 29.86 in1011.2 mb - 0.00 in0.0 mm 0.00 in0.0 mm
05:55 AM 36.9°F2.7°C 27.0°F-2.8°C 67% 10.4 mph E16.7 kmh E 16.1 mph25.9 kmh 29.85 in1010.8 mb - 0.00 in0.0 mm 0.00 in0.0 mm
06:00 AM 37.0°F2.8°C 27.1°F-2.7°C 67% 11.5 mph E18.5 kmh E 16.1 mph25.9 kmh 29.85 in1010.8 mb - 0.00 in0.0 mm 0.00 in0.0 mm
06:05 AM 37.0°F2.8°C 26.7°F-2.9°C 66% 15.0 mph E24.1 kmh E 19.6 mph31.5 kmh 29.84 in1010.5 mb - 0.00 in0.0 mm 0.00 in0.0 mm
06:10 AM 37.0°F2.8°C 27.1°F-2.7°C 67% 10.4 mph ESE16.7 kmh ESE 13.8 mph22.2 kmh 29.84 in1010.5 mb - 0.00 in0.0 mm 0.00 in0.0 mm
06:15 AM 36.9°F2.7°C 27.0°F-2.8°C 67% 12.7 mph E20.4 kmh E 16.1 mph25.9 kmh 29.83 in1010.2 mb - 0.00 in0.0 mm 0.00 in0.0 mm
06:20 AM 36.9°F2.7°C 27.0°F-2.8°C 67% 13.8 mph E22.2 kmh E 20.7 mph33.3 kmh 29.82 in1009.8 mb - 0.00 in0.0 mm 0.00 in0.0 mm
06:25 AM 36.8°F2.7°C 26.9°F-2.8°C 67% 11.5 mph E18.5 kmh E 20.7 mph33.3 kmh 29.81 in1009.5 mb - 0.00 in0.0 mm 0.00 in0.0 mm
06:30 AM 36.8°F2.7°C 27.2°F-2.7°C 68% 11.5 mph ESE18.5 kmh ESE 19.6 mph31.5 kmh 29.81 in1009.5 mb - 0.00 in0.0 mm 0.00 in0.0 mm
06:35 AM 36.8°F2.7°C 27.2°F-2.7°C 68% 8.1 mph E13.0 kmh E 13.8 mph22.2 kmh 29.81 in1009.5 mb - 0.00 in0.0 mm 0.00 in0.0 mm
06:40 AM 36.8°F2.7°C 27.2°F-2.7°C 68% 13.8 mph E22.2 kmh E 18.4 mph29.6 kmh 29.81 in1009.5 mb - 0.00 in0.0 mm 0.00 in0.0 mm
06:45 AM 36.7°F2.6°C 27.1°F-2.7°C 68% 10.4 mph E16.7 kmh E 17.3 mph27.8 kmh 29.81 in1009.5 mb - 0.00 in0.0 mm 0.00 in0.0 mm
06:50 AM 36.6°F2.6°C 27.4°F-2.6°C 69% 9.2 mph ESE14.8 kmh ESE 13.8 mph22.2 kmh 29.81 in1009.5 mb - 0.00 in0.0 mm 0.00 in0.0 mm
06:55 AM 36.5°F2.5°C 27.3°F-2.6°C 69% 11.5 mph E18.5 kmh E 16.1 mph25.9 kmh 29.81 in1009.5 mb - 0.00 in0.0 mm 0.00 in0.0 mm
07:00 AM 36.5°F2.5°C 27.3°F-2.6°C 69% 11.5 mph E18.5 kmh E 15.0 mph24.1 kmh 29.81 in1009.5 mb - 0.00 in0.0 mm 0.00 in0.0 mm
07:05 AM 36.6°F2.6°C 27.0°F-2.8°C 68% 12.7 mph E20.4 kmh E 15.0 mph24.1 kmh 29.82 in1009.8 mb - 0.00 in0.0 mm 0.00 in0.0 mm
07:10 AM 36.6°F2.6°C 27.4°F-2.6°C 69% 11.5 mph E18.5 kmh E 13.8 mph22.2 kmh 29.83 in1010.2 mb - 0.00 in0.0 mm 0.00 in0.0 mm
07:15 AM 36.6°F2.6°C 27.4°F-2.6°C 69% 8.1 mph E13.0 kmh E 13.8 mph22.2 kmh 29.84 in1010.5 mb - 0.00 in0.0 mm 0.00 in0.0 mm
07:20 AM 36.5°F2.5°C 27.3°F-2.6°C 69% 8.1 mph ESE13.0 kmh ESE 11.5 mph18.5 kmh 29.84 in1010.5 mb - 0.00 in0.0 mm 0.00 in0.0 mm
07:25 AM 36.5°F2.5°C 27.3°F-2.6°C 69% 8.1 mph E13.0 kmh E 10.4 mph16.7 kmh 29.84 in1010.5 mb - 0.00 in0.0 mm 0.00 in0.0 mm
07:30 AM 36.4°F2.4°C 27.5°F-2.5°C 70% 9.2 mph ESE14.8 kmh ESE 13.8 mph22.2 kmh 29.85 in1010.8 mb - 0.00 in0.0 mm 0.00 in0.0 mm
07:35 AM 36.4°F2.4°C 27.5°F-2.5°C 70% 9.2 mph ESE14.8 kmh ESE 12.7 mph20.4 kmh 29.85 in1010.8 mb - 0.00 in0.0 mm 0.00 in0.0 mm
07:40 AM 36.4°F2.4°C 27.5°F-2.5°C 70% 11.5 mph ESE18.5 kmh ESE 13.8 mph22.2 kmh 29.84 in1010.5 mb - 0.00 in0.0 mm 0.00 in0.0 mm
07:45 AM 36.3°F2.4°C 27.8°F-2.3°C 71% 9.2 mph E14.8 kmh E 15.0 mph24.1 kmh 29.84 in1010.5 mb - 0.00 in0.0 mm 0.00 in0.0 mm
07:50 AM 36.4°F2.4°C 27.9°F-2.3°C 71% 9.2 mph E14.8 kmh E 13.8 mph22.2 kmh 29.84 in1010.5 mb - 0.00 in0.0 mm 0.00 in0.0 mm
07:55 AM 36.4°F2.4°C 27.9°F-2.3°C 71% 8.1 mph E13.0 kmh E 11.5 mph18.5 kmh 29.83 in1010.2 mb - 0.00 in0.0 mm 0.00 in0.0 mm
08:00 AM 36.5°F2.5°C 28.0°F-2.2°C 71% 9.2 mph E14.8 kmh E 11.5 mph18.5 kmh 29.83 in1010.2 mb - 0.00 in0.0 mm 0.00 in0.0 mm
08:05 AM 36.5°F2.5°C 28.0°F-2.2°C 71% 9.2 mph E14.8 kmh E 11.5 mph18.5 kmh 29.82 in1009.8 mb - 0.00 in0.0 mm 0.00 in0.0 mm
08:10 AM 36.6°F2.6°C 28.1°F-2.2°C 71% 11.5 mph E18.5 kmh E 15.0 mph24.1 kmh 29.82 in1009.8 mb - 0.00 in0.0 mm 0.00 in0.0 mm
08:15 AM 36.7°F2.6°C 28.2°F-2.1°C 71% 9.2 mph E14.8 kmh E 13.8 mph22.2 kmh 29.82 in1009.8 mb - 0.00 in0.0 mm 0.00 in0.0 mm
08:20 AM 36.8°F2.7°C 28.3°F-2.1°C 71% 9.2 mph E14.8 kmh E 13.8 mph22.2 kmh 29.82 in1009.8 mb - 0.00 in0.0 mm 0.00 in0.0 mm
08:25 AM 36.8°F2.7°C 28.3°F-2.1°C 71% 8.1 mph E13.0 kmh E 13.8 mph22.2 kmh 29.82 in1009.8 mb - 0.00 in0.0 mm 0.00 in0.0 mm
08:30 AM 36.8°F2.7°C 28.3°F-2.1°C 71% 11.5 mph E18.5 kmh E 13.8 mph22.2 kmh 29.82 in1009.8 mb - 0.00 in0.0 mm 0.00 in0.0 mm
08:35 AM 36.8°F2.7°C 28.3°F-2.1°C 71% 12.7 mph E20.4 kmh E 18.4 mph29.6 kmh 29.81 in1009.5 mb - 0.00 in0.0 mm 0.00 in0.0 mm
08:40 AM 36.8°F2.7°C 28.3°F-2.1°C 71% 10.4 mph E16.7 kmh E 18.4 mph29.6 kmh 29.81 in1009.5 mb - 0.00 in0.0 mm 0.00 in0.0 mm
08:45 AM 36.7°F2.6°C 28.2°F-2.1°C 71% 6.9 mph E11.1 kmh E 9.2 mph14.8 kmh 29.81 in1009.5 mb - 0.00 in0.0 mm 0.00 in0.0 mm
08:50 AM 36.7°F2.6°C 28.2°F-2.1°C 71% 9.2 mph E14.8 kmh E 11.5 mph18.5 kmh 29.80 in1009.1 mb - 0.00 in0.0 mm 0.00 in0.0 mm
08:55 AM 36.7°F2.6°C 28.2°F-2.1°C 71% 10.4 mph E16.7 kmh E 17.3 mph27.8 kmh 29.80 in1009.1 mb - 0.00 in0.0 mm 0.00 in0.0 mm
09:00 AM 36.7°F2.6°C 28.2°F-2.1°C 71% 9.2 mph E14.8 kmh E 12.7 mph20.4 kmh 29.80 in1009.1 mb - 0.00 in0.0 mm 0.00 in0.0 mm
09:05 AM 36.8°F2.7°C 28.2°F-2.1°C 71% 12.7 mph E20.4 kmh E 16.1 mph25.9 kmh 29.79 in1008.8 mb - 0.00 in0.0 mm 0.00 in0.0 mm
09:10 AM 36.8°F2.7°C 27.9°F-2.3°C 70% 10.4 mph E16.7 kmh E 11.5 mph18.5 kmh 29.79 in1008.8 mb - 0.00 in0.0 mm 0.00 in0.0 mm
09:15 AM 36.8°F2.7°C 28.2°F-2.1°C 71% 8.1 mph E13.0 kmh E 11.5 mph18.5 kmh 29.79 in1008.8 mb - 0.00 in0.0 mm 0.00 in0.0 mm
09:20 AM 36.7°F2.6°C 28.2°F-2.1°C 71% 8.1 mph E13.0 kmh E 11.5 mph18.5 kmh 29.78 in1008.5 mb - 0.00 in0.0 mm 0.00 in0.0 mm
09:25 AM 36.7°F2.6°C 28.2°F-2.1°C 71% 10.4 mph E16.7 kmh E 11.5 mph18.5 kmh 29.78 in1008.5 mb - 0.00 in0.0 mm 0.00 in0.0 mm
09:30 AM 36.6°F2.6°C 28.1°F-2.2°C 71% 8.1 mph E13.0 kmh E 11.5 mph18.5 kmh 29.79 in1008.8 mb - 0.00 in0.0 mm 0.00 in0.0 mm
09:35 AM 36.6°F2.6°C 28.4°F-2.0°C 72% 10.4 mph E16.7 kmh E 13.8 mph22.2 kmh 29.78 in1008.5 mb - 0.00 in0.0 mm 0.00 in0.0 mm
09:40 AM 36.5°F2.5°C 28.4°F-2.0°C 72% 9.2 mph E14.8 kmh E 15.0 mph24.1 kmh 29.77 in1008.1 mb - 0.00 in0.0 mm 0.00 in0.0 mm
09:45 AM 36.6°F2.6°C 28.1°F-2.2°C 71% 11.5 mph E18.5 kmh E 12.7 mph20.4 kmh 29.77 in1008.1 mb - 0.00 in0.0 mm 0.00 in0.0 mm
09:50 AM 36.5°F2.5°C 28.0°F-2.2°C 71% 12.7 mph E20.4 kmh E 17.3 mph27.8 kmh 29.76 in1007.8 mb - 0.00 in0.0 mm 0.00 in0.0 mm
09:55 AM 36.5°F2.5°C 28.0°F-2.2°C 71% 13.8 mph E22.2 kmh E 19.6 mph31.5 kmh 29.76 in1007.8 mb - 0.00 in0.0 mm 0.00 in0.0 mm
10:00 AM 36.5°F2.5°C 28.0°F-2.2°C 71% 12.7 mph E20.4 kmh E 17.3 mph27.8 kmh 29.75 in1007.5 mb - 0.00 in0.0 mm 0.00 in0.0 mm
10:05 AM 36.6°F2.6°C 28.1°F-2.2°C 71% 13.8 mph E22.2 kmh E 19.6 mph31.5 kmh 29.75 in1007.5 mb - 0.00 in0.0 mm 0.00 in0.0 mm
10:10 AM 36.6°F2.6°C 28.1°F-2.2°C 71% 13.8 mph E22.2 kmh E 19.6 mph31.5 kmh 29.74 in1007.1 mb - 0.00 in0.0 mm 0.00 in0.0 mm
10:15 AM 36.6°F2.6°C 28.1°F-2.2°C 71% 16.1 mph E25.9 kmh E 19.6 mph31.5 kmh 29.74 in1007.1 mb - 0.00 in0.0 mm 0.00 in0.0 mm
10:20 AM 36.6°F2.6°C 28.1°F-2.2°C 71% 11.5 mph ESE18.5 kmh ESE 23.0 mph37.0 kmh 29.74 in1007.1 mb - 0.00 in0.0 mm 0.00 in0.0 mm
10:25 AM 36.6°F2.6°C 28.1°F-2.2°C 71% 13.8 mph E22.2 kmh E 20.7 mph33.3 kmh 29.73 in1006.8 mb - 0.00 in0.0 mm 0.00 in0.0 mm
10:30 AM 36.6°F2.6°C 28.1°F-2.2°C 71% 12.7 mph E20.4 kmh E 17.3 mph27.8 kmh 29.73 in1006.8 mb - 0.00 in0.0 mm 0.00 in0.0 mm
10:35 AM 36.6°F2.6°C 28.1°F-2.2°C 71% 13.8 mph E22.2 kmh E 17.3 mph27.8 kmh 29.71 in1006.1 mb - 0.00 in0.0 mm 0.00 in0.0 mm
10:40 AM 36.7°F2.6°C 28.2°F-2.1°C 71% 13.8 mph E22.2 kmh E 19.6 mph31.5 kmh 29.71 in1006.1 mb - 0.00 in0.0 mm 0.00 in0.0 mm
10:45 AM 36.8°F2.7°C 28.3°F-2.1°C 71% 11.5 mph ESE18.5 kmh ESE 19.6 mph31.5 kmh 29.71 in1006.1 mb - 0.00 in0.0 mm 0.00 in0.0 mm
10:50 AM 36.7°F2.6°C 28.2°F-2.1°C 71% 13.8 mph E22.2 kmh E 16.1 mph25.9 kmh 29.70 in1005.8 mb - 0.00 in0.0 mm 0.00 in0.0 mm
10:55 AM 36.6°F2.6°C 28.1°F-2.2°C 71% 12.7 mph E20.4 kmh E 17.3 mph27.8 kmh 29.69 in1005.4 mb - 0.00 in0.0 mm 0.00 in0.0 mm
11:00 AM 36.5°F2.5°C 28.3°F-2.1°C 72% 12.7 mph E20.4 kmh E 19.6 mph31.5 kmh 29.69 in1005.4 mb - 0.00 in0.0 mm 0.00 in0.0 mm
11:05 AM 36.4°F2.4°C 28.2°F-2.1°C 72% 16.1 mph E25.9 kmh E 25.3 mph40.7 kmh 29.67 in1004.7 mb - 0.00 in0.0 mm 0.00 in0.0 mm
11:10 AM 36.4°F2.4°C 28.2°F-2.1°C 72% 18.4 mph E29.6 kmh E 24.2 mph38.9 kmh 29.67 in1004.7 mb - 0.00 in0.0 mm 0.00 in0.0 mm
11:15 AM 36.4°F2.4°C 27.9°F-2.3°C 71% 16.1 mph E25.9 kmh E 27.6 mph44.4 kmh 29.66 in1004.4 mb - 0.00 in0.0 mm 0.00 in0.0 mm
11:20 AM 36.4°F2.4°C 28.2°F-2.1°C 72% 11.5 mph ESE18.5 kmh ESE 20.7 mph33.3 kmh 29.67 in1004.7 mb - 0.00 in0.0 mm 0.00 in0.0 mm
11:25 AM 36.3°F2.4°C 28.1°F-2.2°C 72% 16.1 mph ESE25.9 kmh ESE 19.6 mph31.5 kmh 29.66 in1004.4 mb - 0.00 in0.0 mm 0.00 in0.0 mm
11:30 AM 36.2°F2.3°C 28.4°F-2.0°C 73% 18.4 mph E29.6 kmh E 24.2 mph38.9 kmh 29.66 in1004.4 mb - 0.00 in0.0 mm 0.00 in0.0 mm
11:35 AM 36.2°F2.3°C 28.0°F-2.2°C 72% 17.3 mph E27.8 kmh E 24.2 mph38.9 kmh 29.65 in1004.1 mb - 0.00 in0.0 mm 0.00 in0.0 mm
11:40 AM 36.2°F2.3°C 28.4°F-2.0°C 73% 13.8 mph E22.2 kmh E 19.6 mph31.5 kmh 29.65 in1004.1 mb - 0.00 in0.0 mm 0.00 in0.0 mm
11:45 AM 36.1°F2.3°C 28.3°F-2.1°C 73% 12.7 mph ESE20.4 kmh ESE 20.7 mph33.3 kmh 29.64 in1003.7 mb - 0.00 in0.0 mm 0.00 in0.0 mm
11:50 AM 36.1°F2.3°C 28.3°F-2.1°C 73% 18.4 mph ESE29.6 kmh ESE 26.5 mph42.6 kmh 29.64 in1003.7 mb - 0.00 in0.0 mm 0.00 in0.0 mm
11:55 AM 36.1°F2.3°C 28.6°F-1.9°C 74% 18.4 mph ESE29.6 kmh ESE 26.5 mph42.6 kmh 29.63 in1003.4 mb - 0.00 in0.0 mm 0.00 in0.0 mm
12:00 PM 36.1°F2.3°C 28.6°F-1.9°C 74% 16.1 mph E25.9 kmh E 21.9 mph35.2 kmh 29.62 in1003.0 mb - 0.00 in0.0 mm 0.00 in0.0 mm
12:05 PM 36.1°F2.3°C 28.6°F-1.9°C 74% 18.4 mph E29.6 kmh E 25.3 mph40.7 kmh 29.62 in1003.0 mb - 0.00 in0.0 mm 0.00 in0.0 mm
12:10 PM 36.0°F2.2°C 28.8°F-1.8°C 75% 12.7 mph E20.4 kmh E 19.6 mph31.5 kmh 29.62 in1003.0 mb - 0.00 in0.0 mm 0.00 in0.0 mm
12:15 PM 35.8°F2.1°C 29.0°F-1.7°C 76% 15.0 mph E24.1 kmh E 25.3 mph40.7 kmh 29.62 in1003.0 mb - 0.00 in0.0 mm 0.00 in0.0 mm
12:20 PM 35.8°F2.1°C 28.9°F-1.7°C 76% 19.6 mph E31.5 kmh E 26.5 mph42.6 kmh 29.61 in1002.7 mb - 0.00 in0.0 mm 0.00 in0.0 mm
12:25 PM 35.7°F2.1°C 28.9°F-1.7°C 76% 15.0 mph E24.1 kmh E 23.0 mph37.0 kmh 29.60 in1002.4 mb - 0.00 in0.0 mm 0.00 in0.0 mm
12:30 PM 35.7°F2.1°C 28.9°F-1.7°C 76% 15.0 mph E24.1 kmh E 19.6 mph31.5 kmh 29.60 in1002.4 mb - 0.00 in0.0 mm 0.00 in0.0 mm
12:35 PM 35.7°F2.1°C 28.9°F-1.7°C 76% 17.3 mph E27.8 kmh E 23.0 mph37.0 kmh 29.59 in1002.0 mb - 0.00 in0.0 mm 0.00 in0.0 mm
12:40 PM 35.7°F2.1°C 29.2°F-1.6°C 77% 13.8 mph E22.2 kmh E 19.6 mph31.5 kmh 29.58 in1001.7 mb - 0.00 in0.0 mm 0.00 in0.0 mm
12:45 PM 35.6°F2.0°C 29.1°F-1.6°C 77% 15.0 mph E24.1 kmh E 26.5 mph42.6 kmh 29.58 in1001.7 mb - 0.00 in0.0 mm 0.00 in0.0 mm
12:50 PM 35.6°F2.0°C 29.1°F-1.6°C 77% 16.1 mph ESE25.9 kmh ESE 23.0 mph37.0 kmh 29.58 in1001.7 mb - 0.00 in0.0 mm 0.00 in0.0 mm
12:55 PM 35.6°F2.0°C 29.1°F-1.6°C 77% 13.8 mph E22.2 kmh E 20.7 mph33.3 kmh 29.57 in1001.4 mb - 0.00 in0.0 mm 0.00 in0.0 mm
01:00 PM 35.6°F2.0°C 29.1°F-1.6°C 77% 16.1 mph E25.9 kmh E 25.3 mph40.7 kmh 29.57 in1001.4 mb - 0.00 in0.0 mm 0.00 in0.0 mm
01:05 PM 35.5°F1.9°C 28.7°F-1.8°C 76% 17.3 mph E27.8 kmh E 25.3 mph40.7 kmh 29.56 in1001.0 mb - 0.00 in0.0 mm 0.00 in0.0 mm
01:10 PM 35.5°F1.9°C 29.0°F-1.7°C 77% 17.3 mph E27.8 kmh E 19.6 mph31.5 kmh 29.55 in1000.7 mb - 0.00 in0.0 mm 0.00 in0.0 mm
01:15 PM 35.3°F1.8°C 29.1°F-1.6°C 78% 16.1 mph E25.9 kmh E 20.7 mph33.3 kmh 29.55 in1000.7 mb - 0.00 in0.0 mm 0.00 in0.0 mm
01:20 PM 35.2°F1.8°C 29.0°F-1.7°C 78% 17.3 mph E27.8 kmh E 28.8 mph46.3 kmh 29.55 in1000.7 mb - 0.01 in0.3 mm 0.01 in0.3 mm
01:25 PM 35.1°F1.7°C 29.2°F-1.6°C 79% 11.5 mph E18.5 kmh E 18.4 mph29.6 kmh 29.54 in1000.3 mb - 0.01 in0.3 mm 0.01 in0.3 mm
01:30 PM 35.0°F1.7°C 29.1°F-1.6°C 79% 16.1 mph E25.9 kmh E 20.7 mph33.3 kmh 29.53 in1000.0 mb - 0.02 in0.5 mm 0.02 in0.5 mm
01:35 PM 35.0°F1.7°C 29.1°F-1.6°C 79% 16.1 mph E25.9 kmh E 23.0 mph37.0 kmh 29.52 in999.7 mb - 0.02 in0.5 mm 0.02 in0.5 mm
01:40 PM 35.0°F1.7°C 29.1°F-1.6°C 79% 18.4 mph ESE29.6 kmh ESE 31.1 mph50.1 kmh 29.52 in999.7 mb - 0.02 in0.5 mm 0.02 in0.5 mm
01:45 PM 34.9°F1.6°C 29.1°F-1.6°C 79% 17.3 mph E27.8 kmh E 24.2 mph38.9 kmh 29.52 in999.7 mb - 0.02 in0.5 mm 0.03 in0.8 mm
01:50 PM 34.8°F1.6°C 29.0°F-1.7°C 79% 15.0 mph E24.1 kmh E 18.4 mph29.6 kmh 29.52 in999.7 mb - 0.02 in0.5 mm 0.03 in0.8 mm
01:55 PM 34.7°F1.5°C 29.1°F-1.6°C 80% 16.1 mph E25.9 kmh E 19.6 mph31.5 kmh 29.52 in999.7 mb - 0.03 in0.8 mm 0.03 in0.8 mm
02:00 PM 34.6°F1.4°C 29.1°F-1.6°C 80% 13.8 mph E22.2 kmh E 18.4 mph29.6 kmh 29.51 in999.3 mb - 0.03 in0.8 mm 0.03 in0.8 mm
02:05 PM 34.7°F1.5°C 29.2°F-1.6°C 80% 12.7 mph E20.4 kmh E 18.4 mph29.6 kmh 29.51 in999.3 mb - 0.03 in0.8 mm 0.03 in0.8 mm
02:10 PM 34.7°F1.5°C 29.2°F-1.6°C 80% 16.1 mph ESE25.9 kmh ESE 20.7 mph33.3 kmh 29.50 in999.0 mb - 0.03 in0.8 mm 0.03 in0.8 mm
02:15 PM 34.6°F1.4°C 29.1°F-1.6°C 80% 13.8 mph E22.2 kmh E 20.7 mph33.3 kmh 29.49 in998.6 mb - 0.04 in1.0 mm 0.04 in1.0 mm
02:20 PM 34.6°F1.4°C 29.1°F-1.6°C 80% 16.1 mph E25.9 kmh E 26.5 mph42.6 kmh 29.49 in998.6 mb - 0.04 in1.0 mm 0.05 in1.3 mm
02:25 PM 34.5°F1.4°C 29.0°F-1.7°C 80% 20.7 mph E33.3 kmh E 26.5 mph42.6 kmh 29.48 in998.3 mb - 0.04 in1.0 mm 0.05 in1.3 mm
02:30 PM 34.6°F1.4°C 29.1°F-1.6°C 80% 15.0 mph E24.1 kmh E 21.9 mph35.2 kmh 29.48 in998.3 mb - 0.03 in0.8 mm 0.05 in1.3 mm
02:35 PM 34.6°F1.4°C 29.1°F-1.6°C 80% 15.0 mph E24.1 kmh E 20.7 mph33.3 kmh 29.48 in998.3 mb - 0.03 in0.8 mm 0.05 in1.3 mm
02:40 PM 34.6°F1.4°C 29.0°F-1.7°C 80% 15.0 mph E24.1 kmh E 23.0 mph37.0 kmh 29.47 in998.0 mb - 0.05 in1.3 mm 0.07 in1.8 mm
02:45 PM 34.4°F1.3°C 28.9°F-1.7°C 80% 15.0 mph E24.1 kmh E 24.2 mph38.9 kmh 29.46 in997.6 mb - 0.05 in1.3 mm 0.07 in1.8 mm
02:50 PM 34.3°F1.3°C 28.8°F-1.8°C 80% 13.8 mph E22.2 kmh E 26.5 mph42.6 kmh 29.46 in997.6 mb - 0.07 in1.8 mm 0.09 in2.3 mm
02:55 PM 34.3°F1.3°C 28.8°F-1.8°C 80% 15.0 mph E24.1 kmh E 26.5 mph42.6 kmh 29.46 in997.6 mb - 0.07 in1.8 mm 0.10 in2.5 mm
03:00 PM 34.2°F1.2°C 28.7°F-1.8°C 80% 15.0 mph E24.1 kmh E 27.6 mph44.4 kmh 29.46 in997.6 mb - 0.07 in1.8 mm 0.11 in2.8 mm
03:05 PM 34.1°F1.2°C 28.6°F-1.9°C 80% 15.0 mph E24.1 kmh E 25.3 mph40.7 kmh 29.46 in997.6 mb - 0.08 in2.0 mm 0.12 in3.0 mm
03:10 PM 34.1°F1.2°C 28.6°F-1.9°C 80% 15.0 mph E24.1 kmh E 23.0 mph37.0 kmh 29.46 in997.6 mb - 0.10 in2.5 mm 0.13 in3.3 mm
03:15 PM 34.0°F1.1°C 28.5°F-1.9°C 80% 18.4 mph E29.6 kmh E 23.0 mph37.0 kmh 29.45 in997.3 mb - 0.12 in3.0 mm 0.16 in4.1 mm
03:20 PM 33.9°F1.1°C 28.4°F-2.0°C 80% 15.0 mph E24.1 kmh E 19.6 mph31.5 kmh 29.45 in997.3 mb - 0.14 in3.6 mm 0.19 in4.8 mm
03:25 PM 33.9°F1.1°C 28.3°F-2.1°C 80% 16.1 mph E25.9 kmh E 19.6 mph31.5 kmh 29.43 in996.6 mb - 0.17 in4.3 mm 0.22 in5.6 mm
03:30 PM 33.8°F1.0°C 28.3°F-2.1°C 80% 15.0 mph E24.1 kmh E 26.5 mph42.6 kmh 29.43 in996.6 mb - 0.18 in4.6 mm 0.23 in5.8 mm
03:35 PM 33.8°F1.0°C 28.3°F-2.1°C 80% 18.4 mph E29.6 kmh E 23.0 mph37.0 kmh 29.42 in996.3 mb - 0.21 in5.3 mm 0.26 in6.6 mm
03:40 PM 33.8°F1.0°C 28.3°F-2.1°C 80% 18.4 mph E29.6 kmh E 24.2 mph38.9 kmh 29.41 in995.9 mb - 0.21 in5.3 mm 0.28 in7.1 mm
03:45 PM 33.7°F0.9°C 27.9°F-2.3°C 79% 19.6 mph E31.5 kmh E 28.8 mph46.3 kmh 29.41 in995.9 mb - 0.23 in5.8 mm 0.31 in7.9 mm
03:50 PM 33.8°F1.0°C 28.0°F-2.2°C 79% 12.7 mph E20.4 kmh E 19.6 mph31.5 kmh 29.40 in995.6 mb - 0.24 in6.1 mm 0.32 in8.1 mm
03:55 PM 33.8°F1.0°C 29.8°F-1.2°C 85% 15.0 mph E24.1 kmh E 17.3 mph27.8 kmh 29.39 in995.3 mb - 0.23 in5.8 mm 0.33 in8.4 mm
04:00 PM 33.9°F1.1°C 28.1°F-2.2°C 79% 16.1 mph E25.9 kmh E 26.5 mph42.6 kmh 29.39 in995.3 mb - 0.24 in6.1 mm 0.35 in8.9 mm
04:05 PM 33.9°F1.1°C 28.1°F-2.2°C 79% 13.8 mph E22.2 kmh E 19.6 mph31.5 kmh 29.39 in995.3 mb - 0.25 in6.4 mm 0.36 in9.1 mm
04:10 PM 34.0°F1.1°C 28.2°F-2.1°C 79% 15.0 mph E24.1 kmh E 19.6 mph31.5 kmh 29.39 in995.3 mb - 0.24 in6.1 mm 0.37 in9.4 mm
04:15 PM 34.1°F1.2°C 28.3°F-2.1°C 79% 15.0 mph E24.1 kmh E 25.3 mph40.7 kmh 29.38 in994.9 mb - 0.23 in5.8 mm 0.38 in9.7 mm
04:20 PM 34.1°F1.2°C 28.3°F-2.1°C 79% 13.8 mph E22.2 kmh E 19.6 mph31.5 kmh 29.38 in994.9 mb - 0.21 in5.3 mm 0.39 in9.9 mm
04:25 PM 34.2°F1.2°C 28.4°F-2.0°C 79% 15.0 mph E24.1 kmh E 23.0 mph37.0 kmh 29.37 in994.6 mb - 0.18 in4.6 mm 0.40 in10.2 mm
04:30 PM 34.2°F1.2°C 28.4°F-2.0°C 79% 12.7 mph E20.4 kmh E 19.6 mph31.5 kmh 29.36 in994.2 mb - 0.18 in4.6 mm 0.41 in10.4 mm
04:35 PM 34.2°F1.2°C 28.4°F-2.0°C 79% 13.8 mph E22.2 kmh E 19.6 mph31.5 kmh 29.37 in994.6 mb - 0.17 in4.3 mm 0.43 in10.9 mm
04:40 PM 34.2°F1.2°C 28.4°F-2.0°C 79% 11.5 mph ESE18.5 kmh ESE 17.3 mph27.8 kmh 29.36 in994.2 mb - 0.15 in3.8 mm 0.43 in10.9 mm
04:45 PM 34.2°F1.2°C 28.4°F-2.0°C 79% 17.3 mph E27.8 kmh E 24.2 mph38.9 kmh 29.36 in994.2 mb - 0.13 in3.3 mm 0.43 in10.9 mm
04:50 PM 34.2°F1.2°C 28.4°F-2.0°C 79% 13.8 mph E22.2 kmh E 21.9 mph35.2 kmh 29.35 in993.9 mb - 0.12 in3.0 mm 0.43 in10.9 mm
04:55 PM 34.3°F1.3°C 28.5°F-1.9°C 79% 12.7 mph E20.4 kmh E 17.3 mph27.8 kmh 29.35 in993.9 mb - 0.11 in2.8 mm 0.44 in11.2 mm
05:00 PM 34.3°F1.3°C 28.5°F-1.9°C 79% 12.7 mph E20.4 kmh E 17.3 mph27.8 kmh 29.36 in994.2 mb - 0.10 in2.5 mm 0.44 in11.2 mm
05:05 PM 34.3°F1.3°C 28.5°F-1.9°C 79% 11.5 mph E18.5 kmh E 19.6 mph31.5 kmh 29.35 in993.9 mb - 0.08 in2.0 mm 0.44 in11.2 mm
05:10 PM 34.3°F1.3°C 28.5°F-1.9°C 79% 13.8 mph E22.2 kmh E 20.7 mph33.3 kmh 29.34 in993.6 mb - 0.07 in1.8 mm 0.44 in11.2 mm
05:15 PM 34.4°F1.3°C 28.6°F-1.9°C 79% 16.1 mph E25.9 kmh E 19.6 mph31.5 kmh 29.34 in993.6 mb - 0.07 in1.8 mm 0.45 in11.4 mm
05:20 PM 34.4°F1.3°C 28.6°F-1.9°C 79% 13.8 mph E22.2 kmh E 19.6 mph31.5 kmh 29.33 in993.2 mb - 0.06 in1.5 mm 0.45 in11.4 mm
05:25 PM 34.5°F1.4°C 28.7°F-1.8°C 79% 12.7 mph E20.4 kmh E 18.4 mph29.6 kmh 29.33 in993.2 mb - 0.06 in1.5 mm 0.46 in11.7 mm
05:30 PM 34.7°F1.5°C 29.2°F-1.6°C 80% 12.7 mph E20.4 kmh E 18.4 mph29.6 kmh 29.34 in993.6 mb - 0.05 in1.3 mm 0.46 in11.7 mm
05:35 PM 34.7°F1.5°C 29.2°F-1.6°C 80% 11.5 mph ESE18.5 kmh ESE 15.0 mph24.1 kmh 29.34 in993.6 mb - 0.04 in1.0 mm 0.47 in11.9 mm
05:40 PM 34.7°F1.5°C 29.2°F-1.6°C 80% 9.2 mph E14.8 kmh E 17.3 mph27.8 kmh 29.34 in993.6 mb - 0.06 in1.5 mm 0.49 in12.4 mm
05:45 PM 34.6°F1.4°C 29.1°F-1.6°C 80% 10.4 mph E16.7 kmh E 16.1 mph25.9 kmh 29.33 in993.2 mb - 0.07 in1.8 mm 0.50 in12.7 mm
05:50 PM 34.6°F1.4°C 28.7°F-1.8°C 79% 11.5 mph E18.5 kmh E 13.8 mph22.2 kmh 29.33 in993.2 mb - 0.08 in2.0 mm 0.51 in13.0 mm
05:55 PM 34.4°F1.3°C 28.6°F-1.9°C 79% 13.8 mph E22.2 kmh E 18.4 mph29.6 kmh 29.32 in992.9 mb - 0.09 in2.3 mm 0.53 in13.5 mm
06:00 PM 34.3°F1.3°C 28.5°F-1.9°C 79% 11.5 mph E18.5 kmh E 18.4 mph29.6 kmh 29.32 in992.9 mb - 0.10 in2.5 mm 0.54 in13.7 mm
06:05 PM 34.3°F1.3°C 28.5°F-1.9°C 79% 15.0 mph E24.1 kmh E 17.3 mph27.8 kmh 29.32 in992.9 mb - 0.11 in2.8 mm 0.55 in14.0 mm
06:10 PM 34.3°F1.3°C 28.5°F-1.9°C 79% 13.8 mph E22.2 kmh E 18.4 mph29.6 kmh 29.31 in992.6 mb - 0.12 in3.0 mm 0.56 in14.2 mm
06:15 PM 34.4°F1.3°C 28.6°F-1.9°C 79% 18.4 mph E29.6 kmh E 24.2 mph38.9 kmh 29.30 in992.2 mb - 0.13 in3.3 mm 0.58 in14.7 mm
06:20 PM 34.4°F1.3°C 28.6°F-1.9°C 79% 15.0 mph E24.1 kmh E 19.6 mph31.5 kmh 29.29 in991.9 mb - 0.14 in3.6 mm 0.59 in15.0 mm
06:25 PM 34.4°F1.3°C 28.6°F-1.9°C 79% 16.1 mph E25.9 kmh E 21.9 mph35.2 kmh 29.29 in991.9 mb - 0.14 in3.6 mm 0.60 in15.2 mm
06:30 PM 34.5°F1.4°C 28.7°F-1.8°C 79% 13.8 mph E22.2 kmh E 20.7 mph33.3 kmh 29.29 in991.9 mb - 0.14 in3.6 mm 0.60 in15.2 mm
06:35 PM 34.6°F1.4°C 28.8°F-1.8°C 79% 15.0 mph E24.1 kmh E 19.6 mph31.5 kmh 29.27 in991.2 mb - 0.14 in3.6 mm 0.61 in15.5 mm
06:40 PM 34.6°F1.4°C 28.8°F-1.8°C 79% 15.0 mph E24.1 kmh E 24.2 mph38.9 kmh 29.27 in991.2 mb - 0.12 in3.0 mm 0.61 in15.5 mm
06:45 PM 34.7°F1.5°C 28.9°F-1.7°C 79% 13.8 mph E22.2 kmh E 19.6 mph31.5 kmh 29.27 in991.2 mb - 0.12 in3.0 mm 0.62 in15.7 mm
06:50 PM 34.8°F1.6°C 29.0°F-1.7°C 79% 11.5 mph ESE18.5 kmh ESE 16.1 mph25.9 kmh 29.27 in991.2 mb - 0.11 in2.8 mm 0.62 in15.7 mm
06:55 PM 34.8°F1.6°C 29.0°F-1.7°C 79% 13.8 mph E22.2 kmh E 19.6 mph31.5 kmh 29.27 in991.2 mb - 0.09 in2.3 mm 0.62 in15.7 mm
07:00 PM 34.8°F1.6°C 29.0°F-1.7°C 79% 13.8 mph E22.2 kmh E 17.3 mph27.8 kmh 29.27 in991.2 mb - 0.08 in2.0 mm 0.62 in15.7 mm
07:05 PM 34.7°F1.5°C 28.9°F-1.7°C 79% 10.4 mph E16.7 kmh E 16.1 mph25.9 kmh 29.27 in991.2 mb - 0.07 in1.8 mm 0.62 in15.7 mm
07:10 PM 34.5°F1.4°C 28.7°F-1.8°C 79% 12.7 mph E20.4 kmh E 15.0 mph24.1 kmh 29.27 in991.2 mb - 0.07 in1.8 mm 0.63 in16.0 mm
07:15 PM 34.4°F1.3°C 28.6°F-1.9°C 79% 11.5 mph E18.5 kmh E 21.9 mph35.2 kmh 29.26 in990.9 mb - 0.05 in1.3 mm 0.63 in16.0 mm
07:20 PM 34.5°F1.4°C 28.7°F-1.8°C 79% 13.8 mph E22.2 kmh E 17.3 mph27.8 kmh 29.26 in990.9 mb - 0.04 in1.0 mm 0.63 in16.0 mm
07:25 PM 34.6°F1.4°C 28.7°F-1.8°C 79% 13.8 mph E22.2 kmh E 20.7 mph33.3 kmh 29.26 in990.9 mb - 0.04 in1.0 mm 0.64 in16.3 mm
07:30 PM 34.5°F1.4°C 28.7°F-1.8°C 79% 11.5 mph E18.5 kmh E 13.8 mph22.2 kmh 29.25 in990.5 mb - 0.03 in0.8 mm 0.64 in16.3 mm
07:35 PM 34.4°F1.3°C 28.6°F-1.9°C 79% 10.4 mph E16.7 kmh E 13.8 mph22.2 kmh 29.25 in990.5 mb - 0.02 in0.5 mm 0.64 in16.3 mm
07:40 PM 34.4°F1.3°C 28.5°F-1.9°C 79% 12.7 mph ESE20.4 kmh ESE 16.1 mph25.9 kmh 29.25 in990.5 mb - 0.03 in0.8 mm 0.65 in16.5 mm
07:45 PM 34.4°F1.3°C 28.6°F-1.9°C 79% 13.8 mph E22.2 kmh E 17.3 mph27.8 kmh 29.25 in990.5 mb - 0.02 in0.5 mm 0.65 in16.5 mm
07:50 PM 34.3°F1.3°C 28.4°F-2.0°C 79% 15.0 mph E24.1 kmh E 20.7 mph33.3 kmh 29.25 in990.5 mb - 0.03 in0.8 mm 0.65 in16.5 mm
07:55 PM 34.0°F1.1°C 28.2°F-2.1°C 79% 12.7 mph E20.4 kmh E 18.4 mph29.6 kmh 29.25 in990.5 mb - 0.04 in1.0 mm 0.66 in16.8 mm
08:00 PM 34.0°F1.1°C 28.2°F-2.1°C 79% 12.7 mph E20.4 kmh E 17.3 mph27.8 kmh 29.24 in990.2 mb - 0.05 in1.3 mm 0.67 in17.0 mm
08:05 PM 33.9°F1.1°C 28.1°F-2.2°C 79% 12.7 mph E20.4 kmh E 16.1 mph25.9 kmh 29.24 in990.2 mb - 0.06 in1.5 mm 0.68 in17.3 mm
08:10 PM 33.8°F1.0°C 28.0°F-2.2°C 79% 12.7 mph E20.4 kmh E 16.1 mph25.9 kmh 29.23 in989.8 mb - 0.07 in1.8 mm 0.69 in17.5 mm
08:15 PM 33.7°F0.9°C 27.9°F-2.3°C 79% 10.4 mph E16.7 kmh E 12.7 mph20.4 kmh 29.23 in989.8 mb - 0.07 in1.8 mm 0.69 in17.5 mm
08:20 PM 33.6°F0.9°C 27.8°F-2.3°C 79% 11.5 mph E18.5 kmh E 15.0 mph24.1 kmh 29.22 in989.5 mb - 0.07 in1.8 mm 0.69 in17.5 mm
08:25 PM 33.5°F0.8°C 27.4°F-2.6°C 78% 10.4 mph E16.7 kmh E 20.7 mph33.3 kmh 29.22 in989.5 mb - 0.07 in1.8 mm 0.71 in18.0 mm
08:30 PM 33.6°F0.9°C 27.5°F-2.5°C 78% 11.5 mph E18.5 kmh E 15.0 mph24.1 kmh 29.22 in989.5 mb - 0.08 in2.0 mm 0.72 in18.3 mm
08:35 PM 33.7°F0.9°C 27.6°F-2.4°C 78% 11.5 mph E18.5 kmh E 18.4 mph29.6 kmh 29.22 in989.5 mb - 0.09 in2.3 mm 0.73 in18.5 mm
08:40 PM 33.9°F1.1°C 27.7°F-2.4°C 78% 12.7 mph E20.4 kmh E 17.3 mph27.8 kmh 29.22 in989.5 mb - 0.09 in2.3 mm 0.74 in18.8 mm
08:45 PM 33.9°F1.1°C 27.8°F-2.3°C 78% 13.8 mph E22.2 kmh E 21.9 mph35.2 kmh 29.22 in989.5 mb - 0.10 in2.5 mm 0.74 in18.8 mm
08:50 PM 34.1°F1.2°C 28.0°F-2.2°C 78% 12.7 mph E20.4 kmh E 20.7 mph33.3 kmh 29.21 in989.2 mb - 0.11 in2.8 mm 0.76 in19.3 mm
08:55 PM 34.3°F1.3°C 28.2°F-2.1°C 78% 12.7 mph E20.4 kmh E 19.6 mph31.5 kmh 29.20 in988.8 mb - 0.10 in2.5 mm 0.76 in19.3 mm
09:00 PM 34.6°F1.4°C 28.5°F-1.9°C 78% 13.8 mph E22.2 kmh E 25.3 mph40.7 kmh 29.20 in988.8 mb - 0.11 in2.8 mm 0.77 in19.6 mm
09:05 PM 34.8°F1.6°C 28.7°F-1.8°C 78% 13.8 mph ESE22.2 kmh ESE 19.6 mph31.5 kmh 29.20 in988.8 mb - 0.10 in2.5 mm 0.78 in19.8 mm
09:10 PM 34.9°F1.6°C 29.1°F-1.6°C 79% 9.2 mph E14.8 kmh E 13.8 mph22.2 kmh 29.20 in988.8 mb - 0.10 in2.5 mm 0.79 in20.1 mm
09:15 PM 35.0°F1.7°C 29.2°F-1.6°C 79% 13.8 mph E22.2 kmh E 17.3 mph27.8 kmh 29.19 in988.5 mb - 0.09 in2.3 mm 0.79 in20.1 mm
09:20 PM 35.2°F1.8°C 29.3°F-1.5°C 79% 11.5 mph E18.5 kmh E 13.8 mph22.2 kmh 29.19 in988.5 mb - 0.10 in2.5 mm 0.79 in20.1 mm
09:25 PM 35.3°F1.8°C 29.4°F-1.4°C 79% 11.5 mph E18.5 kmh E 19.6 mph31.5 kmh 29.19 in988.5 mb - 0.10 in2.5 mm 0.80 in20.3 mm
09:30 PM 35.4°F1.9°C 29.5°F-1.4°C 79% 11.5 mph E18.5 kmh E 17.3 mph27.8 kmh 29.19 in988.5 mb - 0.09 in2.3 mm 0.80 in20.3 mm
09:35 PM 35.4°F1.9°C 29.6°F-1.3°C 79% 13.8 mph E22.2 kmh E 19.6 mph31.5 kmh 29.19 in988.5 mb - 0.08 in2.0 mm 0.81 in20.6 mm
09:40 PM 35.5°F1.9°C 29.6°F-1.3°C 79% 12.7 mph E20.4 kmh E 19.6 mph31.5 kmh 29.19 in988.5 mb - 0.07 in1.8 mm 0.81 in20.6 mm
09:45 PM 35.5°F1.9°C 29.6°F-1.3°C 79% 11.5 mph E18.5 kmh E 17.3 mph27.8 kmh 29.19 in988.5 mb - 0.07 in1.8 mm 0.82 in20.8 mm
09:50 PM 35.6°F2.0°C 29.7°F-1.3°C 79% 12.7 mph E20.4 kmh E 18.4 mph29.6 kmh 29.18 in988.1 mb - 0.07 in1.8 mm 0.83 in21.1 mm
09:55 PM 35.7°F2.1°C 29.8°F-1.2°C 79% 11.5 mph E18.5 kmh E 19.6 mph31.5 kmh 29.18 in988.1 mb - 0.07 in1.8 mm 0.83 in21.1 mm
10:00 PM 35.9°F2.2°C 30.0°F-1.1°C 79% 13.8 mph E22.2 kmh E 18.4 mph29.6 kmh 29.18 in988.1 mb - 0.07 in1.8 mm 0.84 in21.3 mm
10:05 PM 36.0°F2.2°C 30.1°F-1.1°C 79% 12.7 mph E20.4 kmh E 13.8 mph22.2 kmh 29.17 in987.8 mb - 0.06 in1.5 mm 0.84 in21.3 mm
10:10 PM 36.1°F2.3°C 30.5°F-0.8°C 80% 16.1 mph E25.9 kmh E 21.9 mph35.2 kmh 29.17 in987.8 mb - 0.06 in1.5 mm 0.84 in21.3 mm
10:15 PM 36.0°F2.2°C 30.4°F-0.9°C 80% 13.8 mph E22.2 kmh E 19.6 mph31.5 kmh 29.16 in987.5 mb - 0.06 in1.5 mm 0.84 in21.3 mm
10:20 PM 36.0°F2.2°C 30.4°F-0.9°C 80% 11.5 mph E18.5 kmh E 17.3 mph27.8 kmh 29.16 in987.5 mb - 0.06 in1.5 mm 0.85 in21.6 mm
10:25 PM 35.9°F2.2°C 30.3°F-0.9°C 80% 13.8 mph E22.2 kmh E 20.7 mph33.3 kmh 29.16 in987.5 mb - 0.07 in1.8 mm 0.86 in21.8 mm
10:30 PM 35.9°F2.2°C 30.0°F-1.1°C 79% 11.5 mph E18.5 kmh E 17.3 mph27.8 kmh 29.16 in987.5 mb - 0.06 in1.5 mm 0.86 in21.8 mm
10:35 PM 35.9°F2.2°C 30.0°F-1.1°C 79% 11.5 mph E18.5 kmh E 19.6 mph31.5 kmh 29.16 in987.5 mb - 0.06 in1.5 mm 0.87 in22.1 mm
10:40 PM 35.8°F2.1°C 30.2°F-1.0°C 80% 12.7 mph E20.4 kmh E 19.6 mph31.5 kmh 29.16 in987.5 mb - 0.07 in1.8 mm 0.88 in22.4 mm
10:45 PM 35.6°F2.0°C 29.8°F-1.2°C 79% 11.5 mph E18.5 kmh E 17.3 mph27.8 kmh 29.16 in987.5 mb - 0.06 in1.5 mm 0.88 in22.4 mm
10:50 PM 35.6°F2.0°C 29.7°F-1.3°C 79% 11.5 mph E18.5 kmh E 18.4 mph29.6 kmh 29.16 in987.5 mb - 0.05 in1.3 mm 0.88 in22.4 mm
10:55 PM 35.6°F2.0°C 29.7°F-1.3°C 79% 11.5 mph E18.5 kmh E 15.0 mph24.1 kmh 29.16 in987.5 mb - 0.06 in1.5 mm 0.89 in22.6 mm
11:00 PM 35.7°F2.1°C 29.8°F-1.2°C 79% 12.7 mph E20.4 kmh E 18.4 mph29.6 kmh 29.16 in987.5 mb - 0.06 in1.5 mm 0.89 in22.6 mm
11:05 PM 35.7°F2.1°C 29.9°F-1.2°C 79% 11.5 mph E18.5 kmh E 17.3 mph27.8 kmh 29.16 in987.5 mb - 0.06 in1.5 mm 0.89 in22.6 mm
11:10 PM 35.7°F2.1°C 29.8°F-1.2°C 79% 10.4 mph ESE16.7 kmh ESE 17.3 mph27.8 kmh 29.15 in987.1 mb - 0.05 in1.3 mm 0.89 in22.6 mm
11:15 PM 35.7°F2.1°C 29.8°F-1.2°C 79% 12.7 mph E20.4 kmh E 17.3 mph27.8 kmh 29.14 in986.8 mb - 0.06 in1.5 mm 0.90 in22.9 mm
11:20 PM 35.6°F2.0°C 29.7°F-1.3°C 79% 16.1 mph E25.9 kmh E 21.9 mph35.2 kmh 29.14 in986.8 mb - 0.06 in1.5 mm 0.91 in23.1 mm
11:25 PM 35.6°F2.0°C 29.7°F-1.3°C 79% 13.8 mph E22.2 kmh E 19.6 mph31.5 kmh 29.14 in986.8 mb - 0.06 in1.5 mm 0.92 in23.4 mm
11:30 PM 35.4°F1.9°C 29.5°F-1.4°C 79% 11.5 mph E18.5 kmh E 17.3 mph27.8 kmh 29.14 in986.8 mb - 0.07 in1.8 mm 0.93 in23.6 mm
11:35 PM 35.2°F1.8°C 29.3°F-1.5°C 79% 11.5 mph E18.5 kmh E 15.0 mph24.1 kmh 29.14 in986.8 mb - 0.07 in1.8 mm 0.94 in23.9 mm
11:40 PM 35.1°F1.7°C 29.3°F-1.5°C 79% 11.5 mph E18.5 kmh E 16.1 mph25.9 kmh 29.14 in986.8 mb - 0.08 in2.0 mm 0.95 in24.1 mm
11:45 PM 35.1°F1.7°C 28.9°F-1.7°C 78% 10.4 mph E16.7 kmh E 15.0 mph24.1 kmh 29.14 in986.8 mb - 0.09 in2.3 mm 0.97 in24.6 mm
11:50 PM 35.0°F1.7°C 28.8°F-1.8°C 78% 10.4 mph E16.7 kmh E 12.7 mph20.4 kmh 29.14 in986.8 mb - 0.10 in2.5 mm 0.98 in24.9 mm
11:55 PM 34.9°F1.6°C 28.7°F-1.8°C 78% 9.2 mph E14.8 kmh E 15.0 mph24.1 kmh 29.14 in986.8 mb - 0.12 in3.0 mm 0.99 in25.1 mm